Time;durP1;ratioP1;P1;durP2;ratioP2;P2;SDS_P1;SDS_P2;PMS_P1;PMS_P2;Temp;Humidity;BMP_temperature;BMP_pressure;BME280_temperature;BME280_humidity;BME280_pressure;Samples;Min_cycle;Max_cycle;Signal;HPM_P1;HPM_P2
2022/07/09 00:00:58;;;;;;;;;;;;;;;15.86;58.23;100282.00;4957363;29;1011;-57
2022/07/09 00:03:24;;;;;;;;;;;;;;;15.89;57.93;100281.44;4957963;28;1105;-56
2022/07/09 00:05:49;;;;;;;;;;;;;;;15.86;58.18;100277.31;4961862;28;1003;-55
2022/07/09 00:08:15;;;;;;;;;;;;;;;15.87;58.02;100272.69;4957943;29;1145;-56
2022/07/09 00:10:40;;;;;;;;;;;;;;;16.91;59.02;100277.25;4957398;28;1173;-56
2022/07/09 00:13:06;;;;;;;;;;;;;;;16.94;59.47;100286.81;4957550;29;1172;-56
2022/07/09 00:15:31;;;;;;;;;;;;;;;16.51;59.58;100281.09;4957691;29;1034;-55
2022/07/09 00:17:57;;;;;;;;;;;;;;;16.39;59.43;100286.94;4958072;28;1915;-55
2022/07/09 00:20:23;;;;;;;;;;;;;;;16.29;59.06;100276.84;4964091;28;1007;-56
2022/07/09 00:22:48;;;;;;;;;;;;;;;16.25;58.66;100281.25;4957757;29;948;-56
2022/07/09 00:25:14;;;;;;;;;;;;;;;16.23;58.58;100275.25;4958003;29;1101;-56
2022/07/09 00:27:39;;;;;;;;;;;;;;;16.17;58.39;100285.44;4957887;29;1075;-56
2022/07/09 00:30:05;;;;;;;;;;;;;;;16.17;58.23;100281.84;4957249;29;1011;-56
2022/07/09 00:32:30;;;;;;;;;;;;;;;16.13;58.38;100289.00;4957969;28;1019;-56
2022/07/09 00:34:56;;;;;;;;;;;;;;;16.08;58.00;100285.19;4961514;29;1070;-56
2022/07/09 00:37:21;;;;;;;;;;;;;;;16.07;58.14;100297.28;4962894;28;1979;-55
2022/07/09 00:39:46;;;;;;;;;;;;;;;16.08;57.79;100289.84;4961770;28;1038;-53
2022/07/09 00:42:12;;;;;;;;;;;;;;;16.07;57.89;100286.31;4962583;28;1232;-52
2022/07/09 00:44:37;;;;;;;;;;;;;;;16.04;58.11;100286.03;4961565;28;1010;-54
2022/07/09 00:47:04;;;;;;;;;;;;;;;16.03;57.97;100285.22;4967635;28;1027;-55
2022/07/09 00:49:30;;;;;;;;;;;;;;;16.00;57.70;100280.28;4961329;29;1251;-52
2022/07/09 00:51:58;;;;;;;;;;;;;;;16.00;57.85;100279.47;4961199;29;995;-53
2022/07/09 00:54:24;;;;;;;;;;;;;;;15.97;57.86;100277.28;4959030;29;1034;-54
2022/07/09 00:56:49;;;;;;;;;;;;;;;15.97;57.66;100269.88;4966129;28;1907;-54
2022/07/09 00:59:15;;;;;;;;;;;;;;;15.98;57.72;100271.53;4961223;29;1185;-55
2022/07/09 01:01:40;;;;;;;;;;;;;;;15.91;57.98;100265.53;4961072;29;833;-56
2022/07/09 01:04:06;;;;;;;;;;;;;;;15.91;57.79;100263.59;4961320;29;995;-55
2022/07/09 01:06:31;;;;;;;;;;;;;;;15.89;57.73;100263.06;4961380;29;1173;-56
2022/07/09 01:08:57;;;;;;;;;;;;;;;15.91;57.97;100258.13;4958526;29;1069;-53
2022/07/09 01:11:22;;;;;;;;;;;;;;;15.90;57.89;100263.88;4962522;28;1070;-55
2022/07/09 01:13:48;;;;;;;;;;;;;;;15.86;57.75;100268.28;4960410;28;959;-54
2022/07/09 01:16:14;;;;;;;;;;;;;;;15.88;57.76;100263.38;4961898;28;1910;-53
2022/07/09 01:18:40;;;;;;;;;;;;;;;15.87;57.69;100264.47;4954884;29;1018;-54
2022/07/09 01:21:05;;;;;;;;;;;;;;;15.83;58.07;100263.38;4960843;29;970;-55
2022/07/09 01:23:31;;;;;;;;;;;;;;;15.84;58.13;100259.53;4965528;28;1079;-55
2022/07/09 01:25:56;;;;;;;;;;;;;;;15.81;57.91;100266.41;4965528;28;877;-54
2022/07/09 01:28:22;;;;;;;;;;;;;;;15.85;57.90;100262.00;4947633;28;1055;-55
2022/07/09 01:30:47;;;;;;;;;;;;;;;17.19;58.82;100260.22;4964020;28;1035;-53
2022/07/09 01:33:13;;;;;;;;;;;;;;;16.80;59.83;100261.09;4960982;28;859;-52
2022/07/09 01:35:38;;;;;;;;;;;;;;;16.47;59.50;100260.81;4962719;28;1070;-52
2022/07/09 01:38:04;;;;;;;;;;;;;;;16.35;59.45;100261.97;4961043;29;1910;-53
2022/07/09 01:40:29;;;;;;;;;;;;;;;16.32;58.89;100265.28;4960593;28;1185;-52
2022/07/09 01:42:55;;;;;;;;;;;;;;;16.28;58.61;100266.97;4966920;28;1011;-52
2022/07/09 01:45:20;;;;;;;;;;;;;;;16.21;58.32;100259.03;4959186;28;1058;-55
2022/07/09 01:47:46;;;;;;;;;;;;;;;16.14;58.36;100258.53;4960559;29;1022;-55
2022/07/09 01:50:11;;;;;;;;;;;;;;;16.14;58.46;100257.72;4960298;29;1011;-55
2022/07/09 01:52:37;;;;;;;;;;;;;;;16.10;58.16;100256.66;4960520;29;1093;-55
2022/07/09 01:55:02;;;;;;;;;;;;;;;16.12;58.28;100252.53;4960064;29;1030;-55
2022/07/09 01:57:28;;;;;;;;;;;;;;;16.10;58.03;100253.91;4960400;29;1906;-56
2022/07/09 01:59:53;;;;;;;;;;;;;;;16.07;58.17;100247.91;4960403;28;1117;-55
2022/07/09 02:02:18;;;;;;;;;;;;;;;16.04;58.18;100245.72;4963885;28;793;-55
2022/07/09 02:04:45;;;;;;;;;;;;;;;16.05;57.88;100250.09;4960403;29;1168;-54
2022/07/09 02:07:11;;;;;;;;;;;;;;;16.00;58.01;100252.03;4960076;29;999;-54
2022/07/09 02:09:37;;;;;;;;;;;;;;;16.02;58.00;100239.69;4959686;28;1141;-54
2022/07/09 02:12:02;;;;;;;;;;;;;;;16.03;57.98;100238.59;4959939;29;1078;-55
2022/07/09 02:14:28;;;;;;;;;;;;;;;16.01;57.71;100243.53;4959298;29;1075;-53
2022/07/09 02:16:54;;;;;;;;;;;;;;;15.97;57.87;100241.66;4959714;29;1959;-57
2022/07/09 02:19:19;;;;;;;;;;;;;;;15.96;58.26;100243.56;4959845;28;975;-55
2022/07/09 02:21:45;;;;;;;;;;;;;;;15.91;57.97;100238.94;4965307;28;1137;-53
2022/07/09 02:24:10;;;;;;;;;;;;;;;15.98;58.01;100244.09;4959891;28;1097;-55
2022/07/09 02:26:35;;;;;;;;;;;;;;;15.90;58.16;100248.25;4960848;28;1097;-52
2022/07/09 02:29:01;;;;;;;;;;;;;;;15.91;58.12;100240.84;4961793;28;1010;-55
2022/07/09 02:31:27;;;;;;;;;;;;;;;15.88;58.25;100233.19;4943094;29;1035;-54
2022/07/09 02:33:52;;;;;;;;;;;;;;;15.91;57.99;100249.09;4959767;29;1220;-52
2022/07/09 02:36:18;;;;;;;;;;;;;;;15.87;58.05;100242.53;4959248;29;1902;-54
2022/07/09 02:38:43;;;;;;;;;;;;;;;15.87;57.96;100243.34;4959403;29;1201;-54
2022/07/09 02:41:09;;;;;;;;;;;;;;;15.87;57.89;100246.06;4959533;28;960;-53
2022/07/09 02:43:34;;;;;;;;;;;;;;;15.83;58.21;100242.25;4965626;28;991;-53
2022/07/09 02:46:00;;;;;;;;;;;;;;;15.86;57.90;100236.19;4964016;28;1027;-55
2022/07/09 02:48:26;;;;;;;;;;;;;;;15.86;57.81;100246.34;4963795;28;1291;-56
2022/07/09 02:50:51;;;;;;;;;;;;;;;15.82;58.20;100240.63;4959808;28;1082;-55
2022/07/09 02:53:18;;;;;;;;;;;;;;;15.86;57.84;100243.63;4964233;28;1315;-57
2022/07/09 02:55:43;;;;;;;;;;;;;;;15.86;57.81;100238.94;4953391;28;1077;-58
2022/07/09 02:58:10;;;;;;;;;;;;;;;15.78;57.98;100234.03;4970709;28;2076;-56
2022/07/09 03:00:35;;;;;;;;;;;;;;;16.13;58.83;100242.38;4951417;28;2056;-60
2022/07/09 03:03:01;;;;;;;;;;;;;;;17.40;59.00;100245.19;4969288;28;1850;-60
2022/07/09 03:05:26;;;;;;;;;;;;;;;16.67;60.10;100233.19;4959177;29;1860;-57
2022/07/09 03:07:52;;;;;;;;;;;;;;;16.47;59.65;100227.91;4962794;28;2146;-59
2022/07/09 03:10:17;;;;;;;;;;;;;;;16.32;59.53;100242.53;4959217;28;1797;-61
2022/07/09 03:12:43;;;;;;;;;;;;;;;16.26;59.08;100228.03;4961067;28;2137;-59
2022/07/09 03:15:08;;;;;;;;;;;;;;;16.24;58.65;100224.75;4971759;28;1291;-60
2022/07/09 03:17:34;;;;;;;;;;;;;;;16.21;58.64;100236.28;4972754;28;1979;-58
2022/07/09 03:20:00;;;;;;;;;;;;;;;16.16;58.33;100234.41;4970836;28;1071;-59
2022/07/09 03:22:25;;;;;;;;;;;;;;;16.11;58.51;100226.19;4973933;28;1303;-59
2022/07/09 03:24:51;;;;;;;;;;;;;;;16.10;58.38;100234.72;4964875;28;1030;-59
2022/07/09 03:27:16;;;;;;;;;;;;;;;16.08;58.49;100232.25;4961833;28;932;-59
2022/07/09 03:29:42;;;;;;;;;;;;;;;16.04;58.13;100223.75;4958468;29;1066;-59
2022/07/09 03:32:07;;;;;;;;;;;;;;;16.00;58.33;100225.44;4958765;28;1011;-60
2022/07/09 03:34:33;;;;;;;;;;;;;;;15.98;58.24;100227.66;4960674;28;1141;-59
2022/07/09 03:36:59;;;;;;;;;;;;;;;16.03;58.04;100230.38;4960800;28;1898;-58
2022/07/09 03:39:24;;;;;;;;;;;;;;;15.97;58.33;100238.91;4958314;29;1149;-58
2022/07/09 03:41:50;;;;;;;;;;;;;;;15.97;57.95;100234.22;4958302;29;1003;-56
2022/07/09 03:44:15;;;;;;;;;;;;;;;15.95;58.16;100239.19;4960941;28;2244;-54
2022/07/09 03:46:41;;;;;;;;;;;;;;;16.08;59.24;100245.97;4958324;29;1097;-62
2022/07/09 03:49:06;;;;;;;;;;;;;;;16.15;59.46;100248.41;4958326;28;1094;-62
2022/07/09 03:51:31;;;;;;;;;;;;;;;16.03;58.92;100244.09;4958067;29;908;-66
2022/07/09 03:53:57;;;;;;;;;;;;;;;16.12;59.00;100259.91;4962996;28;1197;-60
2022/07/09 03:56:22;;;;;;;;;;;;;;;16.03;58.86;100262.44;4957837;28;1973;-64
2022/07/09 03:58:48;;;;;;;;;;;;;;;15.97;59.08;100271.81;4958465;29;1031;-60
2022/07/09 04:01:13;;;;;;;;;;;;;;;15.97;58.68;100264.41;4960873;28;1145;-63
2022/07/09 04:03:39;;;;;;;;;;;;;;;16.21;59.94;100270.00;4960001;28;916;-61
2022/07/09 04:06:05;;;;;;;;;;;;;;;17.60;61.13;100262.56;4959168;28;983;-59
2022/07/09 04:08:30;;;;;;;;;;;;;;;16.89;61.70;100270.41;4958354;28;1117;-60
2022/07/09 04:10:56;;;;;;;;;;;;;;;16.62;60.95;100271.69;4958316;28;1014;-60
2022/07/09 04:13:21;;;;;;;;;;;;;;;16.50;60.56;100269.28;4957972;28;2438;-59
2022/07/09 04:15:47;;;;;;;;;;;;;;;16.46;59.64;100260.00;4957462;28;869;-59
2022/07/09 04:18:15;;;;;;;;;;;;;;;16.42;59.23;100265.25;4958070;28;1046;-59
2022/07/09 04:20:40;;;;;;;;;;;;;;;16.33;59.18;100266.94;4958056;29;1046;-59
2022/07/09 04:23:06;;;;;;;;;;;;;;;16.24;59.20;100268.63;4957844;28;1093;-59
2022/07/09 04:25:31;;;;;;;;;;;;;;;16.29;58.90;100268.63;4960674;28;1069;-58
2022/07/09 04:27:58;;;;;;;;;;;;;;;16.24;58.77;100268.63;4956951;29;948;-58
2022/07/09 04:30:25;;;;;;;;;;;;;;;16.21;58.39;100264.53;4959274;28;1257;-58
2022/07/09 04:32:50;;;;;;;;;;;;;;;16.19;58.47;100265.94;4958774;29;1021;-58
2022/07/09 04:35:16;;;;;;;;;;;;;;;16.15;58.39;100264.88;4958222;28;1180;-58
2022/07/09 04:37:42;;;;;;;;;;;;;;;16.15;58.32;100259.38;4957955;28;1993;-59
2022/07/09 04:40:07;;;;;;;;;;;;;;;16.13;58.57;100261.56;4958064;28;993;-58
2022/07/09 04:42:33;;;;;;;;;;;;;;;16.14;58.19;100263.22;4957744;28;2447;-58
2022/07/09 04:44:58;;;;;;;;;;;;;;;16.10;58.52;100262.94;4957847;29;984;-59
2022/07/09 04:47:24;;;;;;;;;;;;;;;16.07;58.24;100269.00;4954484;28;1224;-59
2022/07/09 04:49:49;;;;;;;;;;;;;;;16.05;58.52;100268.47;4959884;28;1143;-60
2022/07/09 04:52:19;;;;;;;;;;;;;;;16.06;58.24;100270.09;4957075;28;864;-59
2022/07/09 04:54:44;;;;;;;;;;;;;;;16.04;58.28;100264.09;4957439;29;1089;-58
2022/07/09 04:57:10;;;;;;;;;;;;;;;16.06;58.18;100259.13;4957199;28;1906;-59
2022/07/09 04:59:35;;;;;;;;;;;;;;;16.05;58.32;100261.06;4957769;29;1043;-59
2022/07/09 05:02:01;;;;;;;;;;;;;;;16.02;58.07;100256.16;4957799;28;1177;-60
2022/07/09 05:04:26;;;;;;;;;;;;;;;16.03;58.13;100257.81;4957313;29;869;-58
2022/07/09 05:06:52;;;;;;;;;;;;;;;16.01;58.12;100249.03;4957753;28;963;-58
2022/07/09 05:09:17;;;;;;;;;;;;;;;16.00;58.31;100247.38;4955175;29;1118;-62
2022/07/09 05:11:42;;;;;;;;;;;;;;;16.01;58.38;100250.97;4961812;28;1018;-62
2022/07/09 05:14:08;;;;;;;;;;;;;;;15.98;58.11;100254.28;4961301;28;2675;-61
2022/07/09 05:16:34;;;;;;;;;;;;;;;15.98;58.24;100238.63;4957155;28;1914;-63
2022/07/09 05:18:59;;;;;;;;;;;;;;;15.99;58.35;100242.19;4960743;28;1145;-61
2022/07/09 05:21:25;;;;;;;;;;;;;;;15.98;58.23;100238.63;4961117;29;1117;-61
2022/07/09 05:23:50;;;;;;;;;;;;;;;15.91;58.51;100244.41;4960845;29;987;-60
2022/07/09 05:26:16;;;;;;;;;;;;;;;15.95;58.32;100241.09;4960794;28;1184;-64
2022/07/09 05:28:41;;;;;;;;;;;;;;;15.95;58.42;100241.09;4960222;29;904;-61
2022/07/09 05:31:07;;;;;;;;;;;;;;;15.96;58.09;100245.50;4960982;28;1042;-63
2022/07/09 05:33:32;;;;;;;;;;;;;;;15.97;58.08;100247.94;4960406;28;1046;-61
2022/07/09 05:35:57;;;;;;;;;;;;;;;15.94;58.36;100243.03;4965070;28;1905;-62
2022/07/09 05:38:23;;;;;;;;;;;;;;;15.92;58.27;100245.22;4960953;29;1089;-62
2022/07/09 05:40:48;;;;;;;;;;;;;;;15.91;58.56;100238.94;4960753;29;1061;-62
2022/07/09 05:43:14;;;;;;;;;;;;;;;15.93;58.33;100232.34;4959238;28;2573;-59
2022/07/09 05:45:39;;;;;;;;;;;;;;;15.92;58.43;100228.75;4961094;28;999;-60
2022/07/09 05:48:05;;;;;;;;;;;;;;;15.90;58.40;100225.50;4960301;28;1114;-61
2022/07/09 05:50:30;;;;;;;;;;;;;;;15.90;58.39;100226.31;4943574;29;1038;-59
2022/07/09 05:52:56;;;;;;;;;;;;;;;16.25;58.92;100223.66;4960772;28;890;-62
2022/07/09 05:55:21;;;;;;;;;;;;;;;16.66;56.99;100225.25;4957756;29;1007;-59
2022/07/09 05:57:47;;;;;;;;;;;;;;;17.14;57.13;100230.06;4960091;28;1967;-58
2022/07/09 06:00:12;;;;;;;;;;;;;;;18.45;53.42;100208.56;4961344;28;1121;-57
2022/07/09 06:02:38;;;;;;;;;;;;;;;17.15;55.45;100221.50;4960766;28;1153;-59
2022/07/09 06:05:03;;;;;;;;;;;;;;;16.84;54.46;100212.75;4960316;28;900;-60
2022/07/09 06:07:29;;;;;;;;;;;;;;;16.64;53.56;100217.31;4960084;29;959;-60
2022/07/09 06:09:54;;;;;;;;;;;;;;;16.84;53.73;100212.75;4959968;28;1054;-61
2022/07/09 06:12:20;;;;;;;;;;;;;;;17.04;54.61;100211.75;4964452;28;2667;-60
2022/07/09 06:14:45;;;;;;;;;;;;;;;16.81;53.45;100194.91;4960121;28;1026;-59
2022/07/09 06:17:10;;;;;;;;;;;;;;;16.71;52.78;100195.03;4959508;28;1981;-62
2022/07/09 06:19:36;;;;;;;;;;;;;;;16.64;52.45;100200.03;4962561;28;1027;-64
2022/07/09 06:22:02;;;;;;;;;;;;;;;16.74;51.51;100187.00;4959862;29;1007;-62
2022/07/09 06:24:27;;;;;;;;;;;;;;;16.56;51.73;100204.19;4960390;28;1093;-63
2022/07/09 06:26:53;;;;;;;;;;;;;;;16.64;50.99;100206.34;4959928;28;1181;-61
2022/07/09 06:29:18;;;;;;;;;;;;;;;16.66;50.85;100193.16;4959946;28;999;-62
2022/07/09 06:31:44;;;;;;;;;;;;;;;16.61;50.35;100190.44;4959243;28;995;-62
2022/07/09 06:34:10;;;;;;;;;;;;;;;16.55;50.45;100186.09;4964634;28;1011;-64
2022/07/09 06:36:36;;;;;;;;;;;;;;;16.57;50.32;100183.88;4964335;28;1985;-62
2022/07/09 06:41:46;;;;;;;;;;;;;;;16.54;50.16;100189.97;4962651;28;1383;-60
2022/07/09 06:44:11;;;;;;;;;;;;;;;17.35;51.73;100203.16;4959810;28;2837;-62
2022/07/09 06:46:38;;;;;;;;;;;;;;;17.10;52.85;100202.38;4959295;29;1003;-61
2022/07/09 06:49:03;;;;;;;;;;;;;;;16.98;51.97;100194.50;4958807;28;1169;-60
2022/07/09 06:51:29;;;;;;;;;;;;;;;16.92;51.17;100187.44;4959405;28;987;-60
2022/07/09 06:53:54;;;;;;;;;;;;;;;16.82;50.74;100180.09;4959544;28;1002;-61
2022/07/09 06:56:20;;;;;;;;;;;;;;;16.77;50.57;100178.22;4960855;28;1973;-57
2022/07/09 06:58:45;;;;;;;;;;;;;;;16.79;50.13;100174.34;4959221;28;1030;-55
2022/07/09 07:01:11;;;;;;;;;;;;;;;16.77;49.95;100178.22;4959202;28;1228;-58
2022/07/09 07:03:36;;;;;;;;;;;;;;;16.81;49.77;100186.69;4958610;29;1389;-57
2022/07/09 07:06:02;;;;;;;;;;;;;;;16.70;49.85;100177.72;4958865;28;1022;-58
2022/07/09 07:08:27;;;;;;;;;;;;;;;16.75;49.66;100172.19;4959194;28;1089;-57
2022/07/09 07:10:52;;;;;;;;;;;;;;;16.77;49.50;100172.72;4958496;28;1110;-57
2022/07/09 07:13:18;;;;;;;;;;;;;;;16.73;49.52;100173.56;4959199;28;2551;-54
2022/07/09 07:15:44;;;;;;;;;;;;;;;16.85;49.89;100181.44;4961163;28;1114;-58
2022/07/09 07:18:10;;;;;;;;;;;;;;;16.79;49.62;100186.16;4960785;28;1922;-58
2022/07/09 07:20:35;;;;;;;;;;;;;;;16.74;49.77;100192.50;4958719;29;1086;-59
2022/07/09 07:23:01;;;;;;;;;;;;;;;16.75;49.54;100180.41;4959436;28;1129;-58
2022/07/09 07:25:26;;;;;;;;;;;;;;;16.81;49.21;100188.63;4958938;28;975;-61
2022/07/09 07:27:52;;;;;;;;;;;;;;;16.69;49.48;100176.09;4958529;29;991;-57
2022/07/09 07:30:17;;;;;;;;;;;;;;;17.06;49.69;100195.81;4963576;28;1483;-59
2022/07/09 07:32:43;;;;;;;;;;;;;;;17.30;51.18;100195.81;4958615;29;1041;-60
2022/07/09 07:35:08;;;;;;;;;;;;;;;17.06;50.52;100195.81;4958674;28;1042;-55
2022/07/09 07:37:34;;;;;;;;;;;;;;;17.00;50.23;100196.97;4958725;28;1987;-58
2022/07/09 07:39:59;;;;;;;;;;;;;;;16.97;49.89;100192.88;4957985;28;1070;-58
2022/07/09 07:42:25;;;;;;;;;;;;;;;16.96;49.38;100193.16;4960294;28;2547;-56
2022/07/09 07:44:50;;;;;;;;;;;;;;;16.92;49.36;100195.69;4958421;29;1006;-57
2022/07/09 07:47:16;;;;;;;;;;;;;;;16.90;49.34;100185.00;4958212;28;1006;-58
2022/07/09 07:49:41;;;;;;;;;;;;;;;16.91;49.33;100183.03;4958320;28;1051;-57
2022/07/09 07:52:07;;;;;;;;;;;;;;;16.91;49.12;100199.53;4958211;29;1015;-58
2022/07/09 07:54:33;;;;;;;;;;;;;;;16.89;49.18;100201.75;4958728;28;938;-55
2022/07/09 07:56:58;;;;;;;;;;;;;;;16.95;48.82;100200.59;4958487;28;1902;-57
2022/07/09 07:59:24;;;;;;;;;;;;;;;16.89;48.89;100199.00;4964263;28;1050;-53
2022/07/09 08:01:49;;;;;;;;;;;;;;;16.90;48.81;100203.38;4958288;29;1074;-50
2022/07/09 08:04:15;;;;;;;;;;;;;;;16.90;48.75;100203.38;4957862;28;1022;-52
2022/07/09 08:06:40;;;;;;;;;;;;;;;16.89;48.76;100197.06;4962546;28;1140;-54
2022/07/09 08:09:05;;;;;;;;;;;;;;;16.86;48.67;100214.09;4957987;28;1085;-54
2022/07/09 08:11:31;;;;;;;;;;;;;;;16.91;48.59;100213.25;4958297;28;1113;-54
2022/07/09 08:13:56;;;;;;;;;;;;;;;16.79;48.75;100221.03;4955800;28;2934;-56
2022/07/09 08:16:22;;;;;;;;;;;;;;;16.91;48.60;100211.34;4957582;29;1981;-55
2022/07/09 08:18:47;;;;;;;;;;;;;;;16.89;48.69;100218.22;4958050;28;1038;-52
2022/07/09 08:21:13;;;;;;;;;;;;;;;16.86;48.90;100230.56;4958196;28;975;-51
2022/07/09 08:23:54;;;;;;;;;;;;;;;17.44;50.41;100226.97;4957294;28;999;-50
2022/07/09 08:26:26;;;;;;;;;;;;;;;17.12;50.47;100224.03;4953060;28;1109;-49
2022/07/09 08:28:51;;;;;;;;;;;;;;;17.14;49.64;100230.06;4953533;29;850;-50
2022/07/09 08:31:17;;;;;;;;;;;;;;;17.03;49.53;100230.16;4957686;28;1030;-45
2022/07/09 08:33:42;;;;;;;;;;;;;;;17.01;49.30;100232.41;4957574;28;1106;-49
2022/07/09 08:36:08;;;;;;;;;;;;;;;17.05;48.78;100227.13;4957627;28;1902;-53
2022/07/09 08:38:33;;;;;;;;;;;;;;;17.03;48.77;100223.88;4957637;28;1181;-50
2022/07/09 08:40:59;;;;;;;;;;;;;;;17.05;48.28;100236.19;4957767;28;828;-49
2022/07/09 08:43:26;;;;;;;;;;;;;;;16.99;48.63;100245.59;4962804;28;2646;-51
2022/07/09 08:45:53;;;;;;;;;;;;;;;16.97;48.57;100231.34;4957557;28;1158;-50
2022/07/09 08:48:18;;;;;;;;;;;;;;;16.97;48.36;100234.09;4957629;28;1078;-51
2022/07/09 08:50:44;;;;;;;;;;;;;;;16.94;48.21;100237.38;4955824;28;1074;-49
2022/07/09 08:53:10;;;;;;;;;;;;;;;17.01;48.03;100237.91;4957408;28;1153;-51
2022/07/09 08:55:36;;;;;;;;;;;;;;;16.91;48.22;100240.72;4966826;28;1101;-52
2022/07/09 08:58:02;;;;;;;;;;;;;;;17.00;48.08;100247.22;4944650;29;1981;-50
2022/07/09 09:00:27;;;;;;;;;;;;;;;16.95;48.26;100243.72;4959973;29;1034;-52
2022/07/09 09:02:53;;;;;;;;;;;;;;;16.90;48.43;100237.16;4965629;28;1011;-46
2022/07/09 09:05:18;;;;;;;;;;;;;;;16.93;48.00;100242.06;4960846;28;884;-52
2022/07/09 09:07:44;;;;;;;;;;;;;;;16.97;48.12;100236.00;4961564;28;1019;-48
2022/07/09 09:10:19;;;;;;;;;;;;;;;16.95;48.12;100244.53;4961223;29;1117;-51
2022/07/09 09:12:45;;;;;;;;;;;;;;;16.96;47.90;100229.69;4960159;28;2673;-49
2022/07/09 09:15:11;;;;;;;;;;;;;;;16.92;47.80;100240.44;4961052;28;1193;-52
2022/07/09 09:17:42;;;;;;;;;;;;;;;16.95;48.04;100250.03;4960785;28;1965;-50
2022/07/09 09:20:11;;;;;;;;;;;;;;;16.90;47.88;100241.81;4961311;28;970;-48
2022/07/09 09:22:43;;;;;;;;;;;;;;;16.93;47.94;100236.56;4960936;28;964;-51
2022/07/09 09:25:14;;;;;;;;;;;;;;;16.98;47.92;100235.69;4961209;28;1077;-47
2022/07/09 09:27:39;;;;;;;;;;;;;;;16.86;48.28;100235.25;4954533;28;1054;-51
2022/07/09 09:30:09;;;;;;;;;;;;;;;16.91;48.07;100238.81;4943648;28;1039;-51
2022/07/09 09:32:34;;;;;;;;;;;;;;;16.92;47.94;100229.44;4960693;29;976;-51
2022/07/09 09:35:02;;;;;;;;;;;;;;;16.95;47.93;100232.72;4961445;28;1011;-45
2022/07/09 09:37:28;;;;;;;;;;;;;;;17.00;47.85;100219.75;4960442;28;1895;-48
2022/07/09 09:39:53;;;;;;;;;;;;;;;16.96;48.13;100235.19;4961350;29;1123;-46
2022/07/09 09:42:19;;;;;;;;;;;;;;;16.98;47.88;100226.66;4961721;28;2588;-49
2022/07/09 09:44:44;;;;;;;;;;;;;;;16.94;47.86;100240.13;4959018;29;1494;-48
2022/07/09 09:47:10;;;;;;;;;;;;;;;16.91;47.95;100222.34;4943288;29;1074;-46
2022/07/09 09:49:39;;;;;;;;;;;;;;;16.91;48.15;100232.47;4964583;28;1039;-54
2022/07/09 09:52:08;;;;;;;;;;;;;;;16.88;47.95;100227.53;4943124;29;1175;-45
2022/07/09 09:54:34;;;;;;;;;;;;;;;17.00;47.64;100229.91;4963906;28;908;-48
2022/07/09 09:56:59;;;;;;;;;;;;;;;16.91;48.04;100227.00;4961853;28;1895;-47
2022/07/09 09:59:25;;;;;;;;;;;;;;;16.92;47.81;100228.63;4960559;28;1070;-50
2022/07/09 10:01:50;;;;;;;;;;;;;;;16.88;48.00;100213.81;4960531;29;1038;-45
2022/07/09 10:04:16;;;;;;;;;;;;;;;16.97;47.90;100211.28;4960535;28;1061;-49
2022/07/09 10:06:42;;;;;;;;;;;;;;;16.90;48.04;100220.69;4958951;28;1173;-49
2022/07/09 10:09:07;;;;;;;;;;;;;;;16.99;47.85;100223.63;4960442;28;1144;-49
2022/07/09 10:11:39;;;;;;;;;;;;;;;16.98;47.76;100221.97;4961445;28;1169;-45
2022/07/09 10:14:05;;;;;;;;;;;;;;;16.96;47.97;100217.88;4959614;28;2616;-48
2022/07/09 10:16:33;;;;;;;;;;;;;;;16.99;47.81;100218.13;4959925;28;1914;-44
2022/07/09 10:18:59;;;;;;;;;;;;;;;17.02;48.08;100234.00;4964759;28;1061;-46
2022/07/09 10:21:37;;;;;;;;;;;;;;;16.91;48.22;100221.50;4964332;28;1034;-44
2022/07/09 10:24:03;;;;;;;;;;;;;;;17.05;48.03;100233.44;4959648;29;1098;-48
2022/07/09 10:26:43;;;;;;;;;;;;;;;17.10;47.90;100236.13;4959638;28;1038;-44
2022/07/09 10:29:18;;;;;;;;;;;;;;;17.05;48.09;100222.44;4959583;28;1133;-44
2022/07/09 10:31:43;;;;;;;;;;;;;;;17.04;48.12;100215.34;4955666;28;1149;-50
2022/07/09 10:34:09;;;;;;;;;;;;;;;17.05;48.13;100219.69;4960502;28;1129;-46
2022/07/09 10:36:34;;;;;;;;;;;;;;;16.97;48.41;100206.63;4942660;29;1930;-50
2022/07/09 10:39:00;;;;;;;;;;;;;;;17.01;48.09;100213.19;4965057;28;1149;-49
2022/07/09 10:41:25;;;;;;;;;;;;;;;17.00;48.14;100191.47;4964902;28;975;-49
2022/07/09 10:43:51;;;;;;;;;;;;;;;17.00;47.90;100203.28;4956451;28;2351;-46
2022/07/09 10:46:16;;;;;;;;;;;;;;;17.01;48.45;100199.44;4960021;29;1023;-51
2022/07/09 10:48:42;;;;;;;;;;;;;;;17.00;48.31;100207.94;4962882;28;1231;-48
2022/07/09 10:51:07;;;;;;;;;;;;;;;17.06;48.29;100217.78;4958108;29;1437;-52
2022/07/09 10:53:34;;;;;;;;;;;;;;;17.03;48.16;100210.94;4960178;28;1129;-44
2022/07/09 10:56:00;;;;;;;;;;;;;;;17.05;48.05;100211.44;4961195;28;1026;-47
2022/07/09 10:58:25;;;;;;;;;;;;;;;16.98;48.11;100205.50;4959251;29;1914;-46
2022/07/09 11:01:09;;;;;;;;;;;;;;;17.01;47.89;100201.34;4959459;28;1165;-48
2022/07/09 11:03:34;;;;;;;;;;;;;;;17.08;47.98;100199.06;4942813;29;1003;-47
2022/07/09 11:06:00;;;;;;;;;;;;;;;17.01;47.77;100202.19;4960068;28;1054;-47
2022/07/09 11:08:25;;;;;;;;;;;;;;;17.05;47.80;100192.22;4959167;29;1007;-46
2022/07/09 11:10:51;;;;;;;;;;;;;;;17.00;47.94;100195.06;4942256;29;956;-50
2022/07/09 11:13:16;;;;;;;;;;;;;;;17.09;47.81;100185.03;4953365;28;2378;-48
2022/07/09 11:15:42;;;;;;;;;;;;;;;17.06;47.95;100193.06;4959041;28;963;-48
2022/07/09 11:18:07;;;;;;;;;;;;;;;17.04;47.79;100196.09;4958541;28;1906;-54
2022/07/09 11:20:40;;;;;;;;;;;;;;;17.05;47.71;100184.00;4959144;28;1030;-56
2022/07/09 11:23:06;;;;;;;;;;;;;;;16.99;47.88;100185.16;4959204;28;984;-57
2022/07/09 11:25:31;;;;;;;;;;;;;;;16.99;48.10;100192.59;4959328;28;1019;-53
2022/07/09 11:27:57;;;;;;;;;;;;;;;17.07;47.71;100190.03;4958748;29;1007;-49
2022/07/09 11:30:23;;;;;;;;;;;;;;;17.03;47.80;100188.97;4958499;28;1165;-49
2022/07/09 11:32:48;;;;;;;;;;;;;;;17.07;47.83;100187.28;4959186;28;1070;-48
2022/07/09 11:35:23;;;;;;;;;;;;;;;17.02;47.68;100187.31;4961203;28;991;-51
2022/07/09 11:37:48;;;;;;;;;;;;;;;17.07;47.56;100192.78;4960501;28;1915;-52
2022/07/09 11:40:20;;;;;;;;;;;;;;;17.04;47.82;100176.88;4959033;28;1050;-49
2022/07/09 11:42:45;;;;;;;;;;;;;;;17.03;47.82;100175.22;4957944;28;2593;-50
2022/07/09 11:45:11;;;;;;;;;;;;;;;17.10;47.60;100180.38;4959536;28;963;-51
2022/07/09 11:47:38;;;;;;;;;;;;;;;17.11;47.49;100184.78;4961097;28;1085;-48
2022/07/09 11:50:08;;;;;;;;;;;;;;;17.02;47.84;100168.09;4960566;28;1023;-48
2022/07/09 11:52:33;;;;;;;;;;;;;;;17.08;47.70;100155.97;4960189;28;1204;-50
2022/07/09 11:55:02;;;;;;;;;;;;;;;17.06;47.74;100174.66;4961508;28;927;-50
2022/07/09 11:57:28;;;;;;;;;;;;;;;17.05;47.86;100167.50;4961181;28;2002;-51
2022/07/09 11:59:53;;;;;;;;;;;;;;;17.04;47.66;100168.63;4960065;28;1114;-47
2022/07/09 12:02:34;;;;;;;;;;;;;;;17.10;47.86;100159.22;4958444;28;1029;-51
2022/07/09 12:05:00;;;;;;;;;;;;;;;17.04;47.72;100154.06;4958392;28;1217;-52
2022/07/09 12:07:26;;;;;;;;;;;;;;;17.13;47.55;100154.25;4958295;29;849;-49
2022/07/09 12:10:04;;;;;;;;;;;;;;;17.09;47.58;100149.34;4958477;28;1158;-46
2022/07/09 12:12:30;;;;;;;;;;;;;;;17.12;47.47;100144.38;4947802;28;2348;-51
2022/07/09 12:14:55;;;;;;;;;;;;;;;17.10;47.50;100142.75;4961479;28;1081;-51
2022/07/09 12:17:24;;;;;;;;;;;;;;;17.19;47.51;100139.34;4962650;28;1981;-52
2022/07/09 12:19:50;;;;;;;;;;;;;;;17.04;47.78;100143.91;4957593;28;947;-51
2022/07/09 12:22:16;;;;;;;;;;;;;;;17.12;47.79;100136.94;4960465;28;1042;-53
2022/07/09 12:24:42;;;;;;;;;;;;;;;17.05;48.03;100131.81;4958432;29;1050;-53
2022/07/09 12:27:08;;;;;;;;;;;;;;;17.07;47.97;100132.34;4958079;28;979;-51
2022/07/09 12:29:33;;;;;;;;;;;;;;;17.07;47.76;100137.84;4957571;28;1086;-48
2022/07/09 12:31:59;;;;;;;;;;;;;;;17.08;47.76;100138.63;4957540;28;894;-49
2022/07/09 12:34:24;;;;;;;;;;;;;;;17.13;47.70;100135.84;4962448;28;1156;-50
2022/07/09 12:36:50;;;;;;;;;;;;;;;17.09;47.74;100130.09;4957907;28;1972;-48
2022/07/09 12:39:15;;;;;;;;;;;;;;;17.08;47.59;100125.75;4957936;28;1030;-50
2022/07/09 12:41:41;;;;;;;;;;;;;;;17.01;47.83;100116.19;4961392;28;1074;-47
2022/07/09 12:44:07;;;;;;;;;;;;;;;17.05;47.86;100120.81;4957941;28;2402;-48